Time;durP1;ratioP1;P1;durP2;ratioP2;P2;SDS_P1;SDS_P2;PMS_P1;PMS_P2;Temp;Humidity;BMP_temperature;BMP_pressure;BME280_temperature;BME280_humidity;BME280_pressure;Samples;Min_cycle;Max_cycle;Signal;HPM_P1;HPM_P2
2022/01/02 00:02:20;;;;;;;19.50;7.00;;;;;;;7.80;89.83;100598.44;5030229;28;20033;-64
2022/01/02 00:04:48;;;;;;;12.60;6.75;;;;;;;7.79;89.75;100593.25;5037310;28;20556;-66
2022/01/02 00:07:16;;;;;;;15.07;7.40;;;;;;;7.77;89.99;100590.75;5048160;28;20099;-68
2022/01/02 00:09:50;;;;;;;18.67;7.43;;;;;;;7.77;89.98;100582.91;5034883;28;20110;-66
2022/01/02 00:12:22;;;;;;;18.77;6.93;;;;;;;7.72;90.22;100585.75;5048886;28;20475;-67
2022/01/02 00:14:48;;;;;;;15.48;7.35;;;;;;;7.74;90.24;100580.44;5048508;28;20506;-68
2022/01/02 00:17:22;;;;;;;14.15;7.25;;;;;;;7.74;90.24;100580.44;5038364;28;20052;-67
2022/01/02 00:19:53;;;;;;;15.07;6.50;;;;;;;7.75;90.38;100569.09;5046771;28;20037;-69
2022/01/02 00:22:20;;;;;;;16.50;6.28;;;;;;;7.73;90.55;100568.34;5030573;28;20032;-70
2022/01/02 00:24:46;;;;;;;11.50;6.15;;;;;;;7.73;90.84;100570.94;5047625;28;20021;-67
2022/01/02 00:27:13;;;;;;;14.00;6.40;;;;;;;7.73;90.76;100568.34;5048902;28;20037;-66
2022/01/02 00:29:42;;;;;;;12.05;5.75;;;;;;;7.70;90.62;100565.88;5032018;28;20035;-67
2022/01/02 00:32:09;;;;;;;17.88;6.22;;;;;;;7.70;90.58;100566.72;5047520;28;20029;-66
2022/01/02 00:34:36;;;;;;;15.45;6.78;;;;;;;7.67;90.64;100556.41;5050062;28;20028;-68
2022/01/02 00:37:03;;;;;;;14.75;7.40;;;;;;;7.68;91.09;100555.53;5044648;28;20405;-65
2022/01/02 00:39:28;;;;;;;22.70;7.72;;;;;;;7.67;90.87;100551.19;5052877;28;20091;-68
2022/01/02 00:41:56;;;;;;;16.77;6.25;;;;;;;7.67;91.28;100558.19;5032749;28;20071;-70
2022/01/02 00:45:13;;;;;;;15.88;6.60;;;;;;;7.67;91.30;100550.34;5058663;28;20036;-66
2022/01/02 00:47:49;;;;;;;15.98;6.63;;;;;;;7.66;91.40;100548.69;5003560;28;20068;-67
2022/01/02 00:50:20;;;;;;;14.20;6.55;;;;;;;7.62;91.59;100539.31;5048169;28;20032;-68
2022/01/02 00:52:47;;;;;;;13.40;6.15;;;;;;;7.60;91.59;100533.31;5029768;28;20025;-68
2022/01/02 00:55:17;;;;;;;18.30;5.93;;;;;;;7.58;91.58;100524.75;5048253;28;20033;-69
2022/01/02 00:57:53;;;;;;;11.73;6.10;;;;;;;7.59;92.13;100527.25;5048350;28;20036;-68
2022/01/02 01:00:19;;;;;;;13.98;6.72;;;;;;;7.58;91.58;100529.97;5048619;28;20027;-66
2022/01/02 01:02:50;;;;;;;15.20;6.30;;;;;;;7.55;92.02;100532.72;5046293;28;20040;-69
2022/01/02 01:05:21;;;;;;;14.05;5.70;;;;;;;7.56;91.69;100523.97;5035700;28;20030;-67
2022/01/02 01:07:52;;;;;;;13.57;5.80;;;;;;;7.54;92.11;100529.28;5047279;28;20541;-68
2022/01/02 01:10:19;;;;;;;13.13;6.22;;;;;;;7.56;91.83;100527.41;5039009;28;20044;-68
2022/01/02 01:12:48;;;;;;;12.40;5.47;;;;;;;7.55;91.99;100530.94;5037565;28;20081;-66
2022/01/02 01:15:14;;;;;;;13.82;5.57;;;;;;;7.55;92.08;100525.72;5048839;28;20023;-67
2022/01/02 01:17:40;;;;;;;18.20;6.38;;;;;;;7.55;92.27;100525.72;5040783;28;20029;-69
2022/01/02 01:20:08;;;;;;;12.27;5.85;;;;;;;7.55;91.99;100514.44;5035007;28;20037;-66
2022/01/02 01:22:33;;;;;;;12.47;5.83;;;;;;;7.54;92.15;100523.22;5050732;28;20040;-70
2022/01/02 01:24:59;;;;;;;12.82;5.53;;;;;;;7.52;92.41;100516.28;5052344;28;20297;-69
2022/01/02 01:27:24;;;;;;;12.25;6.13;;;;;;;7.52;92.38;100518.91;5052778;28;20083;-66
2022/01/02 01:29:50;;;;;;;18.65;6.18;;;;;;;7.51;92.91;100519.81;5042720;28;20112;-69
2022/01/02 01:32:15;;;;;;;18.52;6.63;;;;;;;7.55;92.16;100510.06;5045451;28;20039;-68
2022/01/02 01:34:41;;;;;;;20.40;6.15;;;;;;;7.60;92.59;100502.00;5042331;28;20090;-67
2022/01/02 01:37:06;;;;;;;17.45;6.70;;;;;;;7.61;92.31;100496.72;5051354;28;20033;-69
2022/01/02 01:39:32;;;;;;;12.80;6.15;;;;;;;7.65;92.02;100485.19;5046649;28;20363;-66
2022/01/02 01:42:06;;;;;;;16.63;6.55;;;;;;;7.65;91.90;100487.81;5046914;28;20044;-67
2022/01/02 01:45:28;;;;;;;16.20;6.60;;;;;;;7.69;91.95;100478.06;5052192;28;20574;-66
2022/01/02 01:47:23;;;;;;;19.05;7.10;;;;;;;7.70;91.74;100472.75;5044794;28;20163;-68
2022/01/02 01:49:48;;;;;;;16.52;6.00;;;;;;;7.72;91.71;100470.06;5045342;28;20037;-67
2022/01/02 01:52:14;;;;;;;13.27;5.22;;;;;;;7.75;91.72;100469.91;5050788;28;20108;-69
2022/01/02 01:54:39;;;;;;;13.70;5.38;;;;;;;7.77;91.42;100470.66;5035554;28;20032;-68
2022/01/02 01:57:05;;;;;;;15.43;5.78;;;;;;;7.79;91.68;100455.78;5050879;28;20048;-66
2022/01/02 01:59:30;;;;;;;16.15;6.43;;;;;;;7.78;91.41;100453.22;5033660;28;20033;-67
2022/01/02 02:01:55;;;;;;;16.08;6.00;;;;;;;7.76;91.18;100458.53;5049878;28;20144;-68
2022/01/02 02:04:21;;;;;;;14.63;5.40;;;;;;;7.73;91.20;100467.38;5050715;28;20033;-67
2022/01/02 02:06:47;;;;;;;11.55;5.50;;;;;;;7.72;91.93;100446.59;5050421;28;20108;-69
2022/01/02 02:09:12;;;;;;;16.50;5.40;;;;;;;7.69;91.71;100437.13;5044560;28;20066;-68
2022/01/02 02:11:39;;;;;;;12.20;5.70;;;;;;;7.71;91.66;100429.22;5041312;28;20033;-66
2022/01/02 02:14:06;;;;;;;13.65;5.47;;;;;;;7.69;92.25;100431.91;5051595;28;20076;-67
2022/01/02 02:16:35;;;;;;;16.48;5.90;;;;;;;7.63;92.13;100432.22;5048052;28;20033;-69
2022/01/02 02:19:02;;;;;;;12.35;5.07;;;;;;;7.54;92.28;100437.94;5048078;28;20029;-67
2022/01/02 02:21:29;;;;;;;15.75;5.60;;;;;;;7.48;92.81;100433.88;5050934;28;20083;-67
2022/01/02 02:23:54;;;;;;;14.93;5.72;;;;;;;7.44;92.67;100428.91;5045663;28;20044;-65
2022/01/02 02:26:19;;;;;;;14.57;5.00;;;;;;;7.38;93.15;100409.19;5051623;28;20036;-67
2022/01/02 02:28:44;;;;;;;10.77;5.00;;;;;;;7.31;93.81;100420.88;5041385;28;20025;-66
2022/01/02 02:31:10;;;;;;;14.77;5.45;;;;;;;7.22;94.06;100418.72;5051119;28;20032;-67
2022/01/02 02:33:35;;;;;;;10.88;5.70;;;;;;;7.21;94.79;100410.06;5050743;28;20025;-67
2022/01/02 02:36:01;;;;;;;17.20;5.90;;;;;;;7.23;94.73;100379.53;5050016;28;20029;-68
2022/01/02 02:38:26;;;;;;;10.77;5.40;;;;;;;7.23;94.15;100379.53;5050727;28;20571;-69
2022/01/02 02:40:52;;;;;;;14.85;5.28;;;;;;;7.23;94.70;100384.75;5050530;28;20036;-69
2022/01/02 02:54:08;;;;;;;15.70;4.68;;;;;;;7.22;94.91;100356.97;5050573;28;20087;-67
2022/01/02 02:59:09;;;;;;;8.63;4.20;;;;;;;7.27;94.87;100367.19;5051014;28;20150;-65
2022/01/02 03:01:34;;;;;;;11.60;4.60;;;;;;;7.26;94.58;100371.53;5049923;28;20120;-67
2022/01/02 03:03:59;;;;;;;14.13;4.60;;;;;;;7.25;95.20;100377.69;5048703;28;20608;-68
2022/01/02 03:06:25;;;;;;;17.10;4.47;;;;;;;7.24;95.34;100377.78;5049991;28;20025;-69
2022/01/02 03:08:52;;;;;;;13.55;4.10;;;;;;;7.22;95.21;100375.22;5049155;28;20037;-70
2022/01/02 03:11:20;;;;;;;9.77;3.78;;;;;;;7.24;95.27;100376.00;5050573;28;20028;-65
2022/01/02 03:13:49;;;;;;;9.10;3.97;;;;;;;7.23;95.13;100363.88;5038855;28;20029;-69
2022/01/02 03:16:14;;;;;;;13.18;4.70;;;;;;;7.22;95.20;100363.94;5043439;28;20499;-66
2022/01/02 03:18:40;;;;;;;9.27;4.70;;;;;;;7.20;95.24;100352.78;5043552;28;20055;-68
2022/01/02 03:21:05;;;;;;;15.85;5.20;;;;;;;7.18;95.46;100349.38;5031902;28;20028;-68
2022/01/02 03:23:31;;;;;;;9.05;4.45;;;;;;;7.14;95.42;100342.66;5042719;28;20406;-68
2022/01/02 03:25:56;;;;;;;9.18;4.22;;;;;;;7.11;95.76;100332.38;5050076;28;20414;-69
2022/01/02 03:28:22;;;;;;;12.10;4.97;;;;;;;7.07;95.53;100326.47;5050755;28;20035;-69
2022/01/02 03:30:47;;;;;;;12.48;4.72;;;;;;;7.05;95.97;100332.72;5040144;28;20082;-67
2022/01/02 03:33:13;;;;;;;11.50;5.03;;;;;;;7.06;95.88;100344.81;5040236;28;20029;-64
2022/01/02 03:35:38;;;;;;;11.90;4.85;;;;;;;7.00;95.39;100331.16;5039807;28;20479;-68
2022/01/02 03:38:06;;;;;;;11.15;5.18;;;;;;;6.99;95.78;100329.47;5050568;28;20048;-68
2022/01/02 03:40:32;;;;;;;9.43;3.95;;;;;;;6.95;95.95;100327.94;5050879;28;20032;-68
2022/01/02 03:42:57;;;;;;;12.98;4.68;;;;;;;6.94;96.09;100318.47;5050740;28;20450;-65
2022/01/02 03:45:23;;;;;;;16.80;4.78;;;;;;;6.93;96.18;100313.31;5045322;28;20060;-66
2022/01/02 03:47:49;;;;;;;11.35;4.53;;;;;;;6.92;96.11;100319.44;5090430;22;20041;-64
2022/01/02 03:50:15;;;;;;;12.50;4.57;;;;;;;6.95;96.41;100312.31;5064892;28;20116;-62
2022/01/02 03:52:40;;;;;;;11.13;4.30;;;;;;;6.94;96.07;100300.22;5052505;28;20029;-64
2022/01/02 03:55:07;;;;;;;11.43;4.65;;;;;;;6.94;96.38;100296.75;5061073;28;20648;-63
2022/01/02 03:57:32;;;;;;;13.65;4.82;;;;;;;6.99;96.16;100299.97;5047038;28;20549;-63
2022/01/02 03:59:58;;;;;;;9.75;4.07;;;;;;;7.10;96.39;100309.84;5045079;28;20080;-64
2022/01/02 04:02:23;;;;;;;14.35;5.10;;;;;;;7.19;96.32;100306.72;5047583;28;20033;-64
2022/01/02 04:04:48;;;;;;;12.57;4.60;;;;;;;7.26;95.76;100301.09;5040980;28;20116;-63
2022/01/02 04:07:14;;;;;;;10.40;4.32;;;;;;;7.34;95.36;100292.91;5040070;28;20033;-61
2022/01/02 04:09:39;;;;;;;13.95;4.72;;;;;;;7.38;95.33;100285.72;5047815;28;20394;-63
2022/01/02 04:12:05;;;;;;;14.13;5.00;;;;;;;7.42;94.90;100263.81;5042032;28;20631;-63
2022/01/02 04:14:30;;;;;;;13.77;4.63;;;;;;;7.43;94.38;100255.03;5041520;28;20036;-63
2022/01/02 04:16:55;;;;;;;11.27;5.28;;;;;;;7.40;94.82;100255.19;5046675;28;20033;-65
2022/01/02 04:19:21;;;;;;;12.15;5.13;;;;;;;7.36;94.87;100251.91;5045590;28;20033;-61
2022/01/02 04:21:46;;;;;;;14.80;5.00;;;;;;;7.34;94.89;100252.91;5046206;28;20037;-63
2022/01/02 04:24:11;;;;;;;18.15;5.70;;;;;;;7.37;94.97;100252.75;5049076;28;20017;-63
2022/01/02 04:26:37;;;;;;;13.07;5.63;;;;;;;7.35;95.20;100244.19;5048355;28;20049;-64
2022/01/02 04:29:03;;;;;;;11.93;5.70;;;;;;;7.37;95.08;100230.13;5037140;28;20512;-63
2022/01/02 04:31:28;;;;;;;13.85;5.75;;;;;;;7.40;95.12;100236.94;5049342;28;20095;-65
2022/01/02 04:33:54;;;;;;;12.00;5.35;;;;;;;7.36;95.33;100232.81;5037312;28;20047;-64
2022/01/02 04:36:19;;;;;;;11.60;5.60;;;;;;;7.35;95.57;100249.41;5048280;28;20024;-64
2022/01/02 04:38:45;;;;;;;15.15;5.47;;;;;;;7.35;95.87;100237.19;5038559;28;20051;-64
2022/01/02 04:41:11;;;;;;;11.10;5.13;;;;;;;7.38;95.23;100242.25;5037986;28;20108;-63
2022/01/02 04:43:36;;;;;;;18.15;5.15;;;;;;;7.44;95.27;100239.28;5040325;28;20124;-65
2022/01/02 04:46:03;;;;;;;16.20;5.82;;;;;;;7.52;94.79;100236.25;5047966;28;20055;-63
2022/01/02 04:48:28;;;;;;;12.95;5.20;;;;;;;7.59;94.33;100235.00;5035823;28;20648;-64
2022/01/02 04:50:54;;;;;;;14.45;5.38;;;;;;;7.60;94.29;100241.91;5045176;28;20401;-64
2022/01/02 04:53:21;;;;;;;13.73;5.22;;;;;;;7.63;94.12;100243.50;5045062;28;20036;-63
2022/01/02 04:55:46;;;;;;;23.08;7.78;;;;;;;7.69;93.75;100245.78;5048120;28;20025;-64
2022/01/02 04:58:12;;;;;;;12.40;5.35;;;;;;;7.70;93.47;100242.22;5043694;28;20060;-63
2022/01/02 05:00:37;;;;;;;16.42;5.63;;;;;;;7.71;93.46;100229.13;5037699;28;20028;-63
2022/01/02 05:03:03;;;;;;;12.52;5.68;;;;;;;7.72;93.15;100217.72;5046367;28;20025;-62
2022/01/02 05:05:28;;;;;;;11.77;5.82;;;;;;;7.71;93.48;100220.41;5048669;28;20039;-64
2022/01/02 05:07:53;;;;;;;11.93;5.05;;;;;;;7.74;93.23;100221.09;5039627;28;20033;-63
2022/01/02 05:10:21;;;;;;;11.52;5.35;;;;;;;7.72;93.17;100220.34;5048050;28;20037;-62
2022/01/02 05:12:47;;;;;;;13.52;5.75;;;;;;;7.71;93.39;100233.47;5035519;28;20562;-65
2022/01/02 05:15:12;;;;;;;13.25;5.88;;;;;;;7.72;93.72;100230.78;5041766;28;20143;-65
2022/01/02 05:17:37;;;;;;;16.20;6.15;;;;;;;7.80;93.39;100221.69;5045314;28;20033;-64
2022/01/02 05:20:04;;;;;;;17.48;6.63;;;;;;;7.87;93.19;100223.84;5034686;28;20029;-62
2022/01/02 05:22:29;;;;;;;17.50;6.75;;;;;;;7.96;92.61;100228.53;5036388;28;20415;-64
2022/01/02 05:24:55;;;;;;;14.45;5.68;;;;;;;8.03;92.47;100233.44;5036054;28;20041;-64
2022/01/02 05:27:20;;;;;;;13.82;5.65;;;;;;;8.05;92.14;100228.97;5035303;28;20040;-63
2022/01/02 05:29:45;;;;;;;16.80;6.28;;;;;;;8.09;92.12;100230.47;5042735;28;20112;-63
2022/01/02 05:32:11;;;;;;;15.50;6.03;;;;;;;8.15;91.89;100236.16;5031640;28;20478;-63
2022/01/02 05:34:36;;;;;;;13.63;5.63;;;;;;;8.16;91.63;100255.31;5038735;28;20036;-63
2022/01/02 05:37:01;;;;;;;13.38;5.90;;;;;;;8.15;91.64;100245.78;5037756;28;20431;-63
2022/01/02 05:39:27;;;;;;;14.40;6.35;;;;;;;8.15;92.00;100238.78;5048285;28;20045;-64
2022/01/02 05:41:52;;;;;;;10.95;5.50;;;;;;;8.18;91.68;100225.53;5038942;28;20484;-64
2022/01/02 05:44:19;;;;;;;13.60;6.05;;;;;;;8.20;91.26;100228.91;5045473;28;20806;-61
2022/01/02 05:46:45;;;;;;;14.85;6.10;;;;;;;8.22;91.40;100234.03;5035072;28;20037;-63
2022/01/02 05:49:11;;;;;;;14.13;5.60;;;;;;;8.19;91.38;100231.59;5035173;28;20124;-64
2022/01/02 05:51:37;;;;;;;15.90;6.45;;;;;;;8.14;91.78;100218.81;5034443;28;20017;-62
2022/01/02 05:54:03;;;;;;;13.43;5.28;;;;;;;8.16;91.64;100224.81;5037777;28;20035;-65
2022/01/02 05:56:29;;;;;;;16.60;6.10;;;;;;;8.14;91.52;100225.81;5045523;28;20036;-62
2022/01/02 05:58:54;;;;;;;16.40;6.50;;;;;;;8.07;91.65;100225.31;5037450;28;20108;-64
2022/01/02 06:01:19;;;;;;;15.57;5.85;;;;;;;8.00;91.97;100231.81;5042275;28;20341;-64
2022/01/02 06:03:44;;;;;;;13.80;5.97;;;;;;;8.00;92.82;100229.22;5044089;28;20039;-63
2022/01/02 06:06:10;;;;;;;18.20;6.88;;;;;;;8.07;92.59;100221.88;5040991;28;20032;-64
2022/01/02 06:08:36;;;;;;;14.32;6.28;;;;;;;8.14;92.05;100207.53;5043342;28;20501;-63
2022/01/02 06:11:02;;;;;;;13.10;6.30;;;;;;;8.16;91.70;100193.47;5048905;28;20099;-62
2022/01/02 06:13:27;;;;;;;14.38;6.22;;;;;;;8.16;91.38;100195.25;5043459;28;20033;-64
2022/01/02 06:15:53;;;;;;;15.43;6.05;;;;;;;8.12;91.58;100206.75;5038531;28;20079;-63
2022/01/02 06:18:19;;;;;;;14.35;6.07;;;;;;;8.07;91.79;100199.22;5051841;28;20520;-64
2022/01/02 06:20:44;;;;;;;13.50;5.80;;;;;;;8.05;91.71;100216.75;5040268;28;20410;-64
2022/01/02 06:23:10;;;;;;;14.75;6.50;;;;;;;8.08;92.26;100210.50;5049186;28;20505;-62
2022/01/02 06:25:35;;;;;;;13.55;5.40;;;;;;;8.13;92.10;100192.81;5039813;28;20537;-64
2022/01/02 06:28:01;;;;;;;15.10;5.45;;;;;;;8.14;92.10;100179.66;5043971;28;20036;-63
2022/01/02 06:30:26;;;;;;;13.23;5.22;;;;;;;8.14;92.16;100186.63;5048239;28;20016;-60
2022/01/02 06:32:55;;;;;;;18.52;6.25;;;;;;;8.13;91.91;100195.41;5027012;28;20052;-64
2022/01/02 06:35:29;;;;;;;12.73;5.85;;;;;;;8.14;92.09;100216.19;5049172;28;20036;-63
2022/01/02 06:37:55;;;;;;;13.50;5.15;;;;;;;8.18;92.24;100216.88;5044666;28;20395;-63
2022/01/02 06:40:22;;;;;;;14.65;5.47;;;;;;;8.22;92.33;100206.16;5037736;28;20036;-64
2022/01/02 06:42:48;;;;;;;10.68;4.63;;;;;;;8.28;91.77;100202.34;5045207;28;20024;-64
2022/01/02 06:45:13;;;;;;;14.63;5.57;;;;;;;8.33;91.50;100191.63;5042154;28;20041;-63
2022/01/02 06:47:38;;;;;;;16.52;6.53;;;;;;;8.32;91.57;100182.94;5039999;28;20033;-62
2022/01/02 06:50:05;;;;;;;11.30;5.28;;;;;;;8.34;91.63;100181.06;5036722;28;20048;-62
2022/01/02 06:52:30;;;;;;;8.68;4.70;;;;;;;8.32;91.43;100190.78;5050101;28;20033;-63
2022/01/02 06:54:55;;;;;;;12.35;5.18;;;;;;;8.32;91.43;100196.00;5044894;28;20029;-64
2022/01/02 06:57:21;;;;;;;15.50;5.93;;;;;;;8.30;91.65;100195.25;5049615;28;20474;-63
2022/01/02 06:59:50;;;;;;;13.70;5.65;;;;;;;8.27;91.77;100189.34;5047252;28;20025;-63
2022/01/02 07:02:16;;;;;;;13.68;5.50;;;;;;;8.29;92.08;100188.34;5037332;28;20029;-63
2022/01/02 07:04:42;;;;;;;10.50;5.55;;;;;;;8.28;91.75;100186.69;5046834;28;20065;-64
2022/01/02 07:07:07;;;;;;;14.30;5.97;;;;;;;8.27;92.01;100182.38;5039067;28;20033;-63
2022/01/02 07:09:33;;;;;;;12.43;5.82;;;;;;;8.27;91.62;100174.56;5044906;28;20021;-63
2022/01/02 07:11:59;;;;;;;13.93;5.57;;;;;;;8.28;91.36;100180.63;5047022;28;20116;-63
2022/01/02 07:14:27;;;;;;;14.32;5.43;;;;;;;8.25;91.63;100198.13;5041426;28;20079;-63
2022/01/02 07:16:57;;;;;;;11.40;5.07;;;;;;;8.24;91.69;100196.47;5045830;28;20063;-64
2022/01/02 07:19:22;;;;;;;12.25;5.45;;;;;;;8.23;91.65;100194.78;5039210;28;20036;-64
2022/01/02 07:21:48;;;;;;;13.40;6.25;;;;;;;8.28;92.81;100175.38;5049032;28;20068;-61
2022/01/02 07:24:14;;;;;;;13.15;5.53;;;;;;;8.50;93.62;100178.44;5047443;28;20017;-63
2022/01/02 07:26:39;;;;;;;16.02;5.93;;;;;;;8.50;91.43;100185.44;5049756;28;20525;-62
2022/01/02 07:29:05;;;;;;;11.70;5.72;;;;;;;8.71;91.71;100182.38;5038029;28;20127;-63
2022/01/02 07:31:30;;;;;;;13.40;5.68;;;;;;;8.75;90.33;100176.94;5043298;28;20411;-63
2022/01/02 07:33:55;;;;;;;13.05;5.88;;;;;;;8.68;89.66;100182.56;5039978;28;20548;-64
2022/01/02 07:36:21;;;;;;;16.42;5.07;;;;;;;8.60;90.25;100174.34;5040412;28;20096;-64
2022/01/02 07:38:46;;;;;;;13.70;6.20;;;;;;;8.58;90.78;100175.34;5049002;28;20437;-63
2022/01/02 07:41:11;;;;;;;14.35;6.05;;;;;;;8.60;90.82;100170.84;5049648;28;20033;-64
2022/01/02 07:43:37;;;;;;;15.45;6.22;;;;;;;8.60;90.51;100176.94;5041649;28;20033;-62
2022/01/02 07:46:02;;;;;;;16.48;5.95;;;;;;;8.61;90.71;100183.84;5040432;28;20037;-64
2022/01/02 07:48:27;;;;;;;14.32;5.40;;;;;;;8.62;90.24;100188.13;5049585;28;20029;-69
2022/01/02 07:50:52;;;;;;;12.82;5.78;;;;;;;8.62;89.92;100182.06;5038284;28;20533;-62
2022/01/02 07:53:18;;;;;;;12.50;6.00;;;;;;;8.63;90.02;100181.97;5042471;28;20037;-62
2022/01/02 07:55:43;;;;;;;9.77;4.82;;;;;;;8.61;90.37;100186.47;5048194;28;20491;-64
2022/01/02 07:58:09;;;;;;;16.33;5.88;;;;;;;8.61;90.33;100183.00;5046076;28;20025;-64
2022/01/02 08:00:35;;;;;;;12.07;5.40;;;;;;;8.60;90.45;100170.84;5048446;28;20028;-63
2022/01/02 08:03:00;;;;;;;16.05;5.55;;;;;;;8.60;90.71;100176.09;5047511;28;20037;-66
2022/01/02 08:05:25;;;;;;;14.70;5.68;;;;;;;8.67;90.41;100174.78;5049279;28;20025;-63
2022/01/02 08:07:51;;;;;;;7.65;3.95;;;;;;;8.69;90.28;100165.94;5040496;28;20059;-63
2022/01/02 08:10:16;;;;;;;8.30;4.22;;;;;;;8.75;90.30;100169.94;5048971;28;20029;-61
2022/01/02 08:12:41;;;;;;;13.88;5.32;;;;;;;8.83;90.01;100157.25;5045350;28;20059;-65
2022/01/02 08:15:08;;;;;;;9.70;4.60;;;;;;;8.92;89.67;100161.06;5040390;28;20068;-62
2022/01/02 08:17:34;;;;;;;16.02;4.32;;;;;;;9.04;88.76;100156.81;5044068;28;20025;-63
2022/01/02 08:19:59;;;;;;;8.55;4.03;;;;;;;9.10;88.61;100161.69;5041946;28;20049;-62
2022/01/02 08:22:24;;;;;;;14.43;4.05;;;;;;;9.18;87.99;100165.47;5042858;28;20053;-64
2022/01/02 08:24:50;;;;;;;7.95;3.78;;;;;;;9.24;87.78;100161.66;5035829;28;20021;-63
2022/01/02 08:27:15;;;;;;;8.00;3.75;;;;;;;9.25;88.00;100165.94;5035457;28;20024;-62
2022/01/02 08:29:40;;;;;;;7.50;4.00;;;;;;;9.27;87.51;100161.47;5047779;28;20029;-65
2022/01/02 08:32:06;;;;;;;9.68;3.85;;;;;;;9.27;87.52;100165.84;5039327;28;20032;-62
2022/01/02 08:34:31;;;;;;;9.98;4.03;;;;;;;9.31;87.20;100162.13;5047999;28;20104;-62
2022/01/02 08:36:56;;;;;;;10.80;4.40;;;;;;;9.28;87.42;100160.53;5039962;28;20037;-62
2022/01/02 08:39:22;;;;;;;11.63;4.50;;;;;;;9.30;87.42;100155.19;5038684;28;20104;-66
2022/01/02 08:41:47;;;;;;;7.97;3.92;;;;;;;9.33;87.30;100142.75;5041891;28;20144;-63
2022/01/02 08:44:12;;;;;;;17.38;4.30;;;;;;;9.35;86.81;100135.66;5043286;28;20767;-64
2022/01/02 08:46:38;;;;;;;9.32;4.60;;;;;;;9.36;87.05;100128.63;5045048;28;20041;-64
2022/01/02 08:49:03;;;;;;;10.88;4.38;;;;;;;9.37;86.86;100117.22;5040531;28;20030;-64
2022/01/02 08:51:29;;;;;;;11.60;4.50;;;;;;;9.39;86.98;100105.72;5044998;28;20090;-64
2022/01/02 08:53:55;;;;;;;10.13;4.45;;;;;;;9.42;86.88;100102.06;5027960;28;20033;-66
2022/01/02 08:56:20;;;;;;;10.73;4.28;;;;;;;9.44;86.64;100101.00;5048206;28;20033;-66
2022/01/02 08:58:46;;;;;;;11.75;4.95;;;;;;;9.50;86.33;100110.25;5031736;28;20119;-63
2022/01/02 09:01:11;;;;;;;11.32;4.25;;;;;;;9.52;86.21;100110.97;5031236;28;20165;-61
2022/01/02 09:03:36;;;;;;;10.57;3.95;;;;;;;9.53;86.09;100104.81;5041820;28;20505;-68
2022/01/02 09:06:02;;;;;;;7.78;3.90;;;;;;;9.54;85.95;100122.19;5034757;28;20585;-72
2022/01/02 09:08:27;;;;;;;7.72;3.53;;;;;;;9.56;85.91;100120.31;5042259;28;20115;-65
2022/01/02 09:10:52;;;;;;;9.00;3.05;;;;;;;9.59;85.52;100119.28;5039969;28;20052;-65
2022/01/02 09:13:18;;;;;;;7.38;3.60;;;;;;;9.65;85.23;100111.03;5042459;28;20047;-65
2022/01/02 09:15:43;;;;;;;7.65;3.15;;;;;;;9.65;85.34;100114.47;5035026;28;20395;-65
2022/01/02 09:18:08;;;;;;;9.85;3.80;;;;;;;9.69;85.36;100107.25;5043760;28;20702;-65
2022/01/02 09:20:34;;;;;;;10.93;4.60;;;;;;;9.71;85.28;100100.13;5041005;28;20044;-64
2022/01/02 09:22:59;;;;;;;9.88;4.07;;;;;;;9.74;85.24;100092.06;5044563;28;20036;-65
2022/01/02 09:25:25;;;;;;;8.05;3.72;;;;;;;9.79;84.81;100074.28;5045956;28;20113;-65
2022/01/02 09:27:51;;;;;;;9.15;4.57;;;;;;;9.80;84.47;100055.03;5041303;28;20033;-65
2022/01/02 09:30:17;;;;;;;12.38;5.43;;;;;;;9.86;84.35;100072.94;5039385;28;20021;-65
2022/01/02 09:32:43;;;;;;;10.23;4.22;;;;;;;9.89;84.31;100072.72;5035110;28;20026;-63
2022/01/02 09:35:09;;;;;;;10.23;4.78;;;;;;;9.98;84.39;100062.59;5039971;28;20075;-65
2022/01/02 09:37:35;;;;;;;9.88;4.40;;;;;;;10.03;85.39;100057.84;5047144;28;20094;-63
2022/01/02 09:40:03;;;;;;;10.73;4.82;;;;;;;10.10;85.62;100052.09;5041429;28;20124;-63
2022/01/02 09:42:29;;;;;;;10.48;4.65;;;;;;;10.31;85.30;100055.03;5045944;28;20033;-63
2022/01/02 09:44:55;;;;;;;9.10;4.60;;;;;;;10.19;83.12;100056.69;5043312;28;20033;-66
2022/01/02 09:47:22;;;;;;;10.70;4.70;;;;;;;10.17;83.04;100042.88;5041308;28;20037;-65
2022/01/02 09:52:15;;;;;;;10.15;4.45;;;;;;;10.13;82.68;100043.19;5021156;28;20064;-67
2022/01/02 09:54:40;;;;;;;9.02;4.32;;;;;;;10.11;82.94;100032.78;5027226;28;20416;-68
2022/01/02 09:57:06;;;;;;;10.98;4.03;;;;;;;10.13;82.80;100040.56;5022222;28;20033;-65
2022/01/02 09:59:31;;;;;;;16.42;3.83;;;;;;;10.12;82.84;100038.88;5018266;28;20046;-68
2022/01/02 10:01:59;;;;;;;12.85;4.18;;;;;;;10.14;82.73;100034.38;5022412;28;20507;-68
2022/01/02 10:04:41;;;;;;;9.20;4.95;;;;;;;10.13;82.82;100025.69;5009050;28;20033;-67
2022/01/02 10:07:33;;;;;;;13.23;4.65;;;;;;;10.17;83.00;100016.66;5015278;28;21010;-68
2022/01/02 10:10:07;;;;;;;12.23;4.35;;;;;;;10.17;82.60;100000.09;5025415;28;20554;-68
2022/01/02 10:12:33;;;;;;;10.35;3.90;;;;;;;10.18;82.71;100005.22;5029978;28;20026;-68
2022/01/02 10:15:20;;;;;;;8.18;4.00;;;;;;;10.17;82.62;100000.94;5016728;28;20473;-69
2022/01/02 10:18:06;;;;;;;11.65;3.97;;;;;;;10.21;82.93;99995.50;5028897;28;20739;-67
2022/01/02 10:20:45;;;;;;;10.88;4.47;;;;;;;10.17;82.72;99989.63;5010336;28;20048;-67
2022/01/02 10:23:11;;;;;;;9.90;4.68;;;;;;;10.16;82.78;99974.84;5023768;28;20124;-68
2022/01/02 10:25:44;;;;;;;9.40;4.45;;;;;;;10.15;82.65;99966.13;5012306;28;20120;-70
2022/01/02 10:28:30;;;;;;;15.88;4.50;;;;;;;10.19;82.37;99940.56;5029285;28;20037;-68
2022/01/02 10:31:11;;;;;;;10.07;4.57;;;;;;;10.21;82.42;99922.97;5011901;28;20063;-70
2022/01/02 10:33:52;;;;;;;16.48;5.63;;;;;;;10.23;82.46;99920.22;5007457;28;20927;-69
2022/01/02 10:36:46;;;;;;;10.18;4.78;;;;;;;10.27;82.26;99929.56;5009486;28;20527;-68
2022/01/02 10:39:13;;;;;;;16.25;4.38;;;;;;;10.27;82.05;99900.72;5008019;28;20041;-67
2022/01/02 10:41:41;;;;;;;10.40;4.75;;;;;;;10.32;81.85;99925.69;5014875;28;20030;-67
2022/01/02 10:44:21;;;;;;;14.77;4.13;;;;;;;10.34;81.76;99941.28;5011419;28;20049;-69
2022/01/02 10:47:05;;;;;;;14.18;4.38;;;;;;;10.38;81.36;99946.22;5011986;28;20037;-71
2022/01/02 10:49:49;;;;;;;11.63;4.47;;;;;;;10.40;81.42;99944.31;5009948;28;20088;-68
2022/01/02 10:52:17;;;;;;;13.52;3.88;;;;;;;10.40;81.37;99930.38;5010216;28;20113;-68
2022/01/02 10:54:42;;;;;;;9.55;3.75;;;;;;;10.45;81.45;99924.78;4995782;28;20021;-68
2022/01/02 10:57:08;;;;;;;11.00;5.28;;;;;;;10.49;81.30;99908.72;5014337;28;20455;-67
2022/01/02 10:59:33;;;;;;;12.90;4.50;;;;;;;10.51;80.72;99896.34;4989624;28;20046;-71
2022/01/02 11:01:59;;;;;;;11.90;4.97;;;;;;;10.55;80.75;99892.56;5016515;28;20053;-70
2022/01/02 11:04:30;;;;;;;12.10;5.80;;;;;;;10.58;80.52;99883.63;5008117;28;20042;-68
2022/01/02 11:06:57;;;;;;;11.73;4.53;;;;;;;10.62;80.02;99877.22;5010086;28;20049;-67
2022/01/02 11:09:22;;;;;;;11.57;5.60;;;;;;;10.65;80.19;99874.38;4987208;28;20116;-69
2022/01/02 11:11:48;;;;;;;15.00;5.32;;;;;;;10.65;79.96;99862.09;5011845;28;20041;-71
2022/01/02 11:14:14;;;;;;;17.40;4.72;;;;;;;10.66;79.83;99849.81;5014899;28;20419;-75
2022/01/02 11:16:40;;;;;;;12.65;5.00;;;;;;;10.64;80.04;99849.94;4993836;28;20094;-69
2022/01/02 11:19:05;;;;;;;9.23;4.07;;;;;;;10.62;79.92;99838.72;5011244;28;20041;-68
2022/01/02 11:21:34;;;;;;;9.98;4.90;;;;;;;10.61;79.50;99836.22;5011375;28;20029;-70
2022/01/02 11:24:24;;;;;;;15.85;4.50;;;;;;;10.59;79.93;99819.75;5010920;28;20064;-66
2022/01/02 11:26:59;;;;;;;9.98;4.18;;;;;;;10.59;79.98;99812.72;5010380;28;20118;-67
2022/01/02 11:29:29;;;;;;;12.75;4.93;;;;;;;10.59;80.08;99817.13;4991751;28;20064;-67
2022/01/02 11:31:55;;;;;;;10.25;4.70;;;;;;;10.59;79.92;99820.59;5012036;28;20126;-69
2022/01/02 11:34:28;;;;;;;9.95;4.68;;;;;;;10.61;79.86;99816.06;4995043;28;20501;-69
2022/01/02 11:37:13;;;;;;;17.77;5.82;;;;;;;10.71;79.55;99823.25;4996445;28;20658;-67
2022/01/02 11:40:00;;;;;;;11.02;4.07;;;;;;;10.71;79.39;99826.69;5010617;28;20057;-67
2022/01/02 11:42:35;;;;;;;12.55;4.47;;;;;;;10.76;79.40;99819.34;5011573;28;20698;-67
2022/01/02 11:45:01;;;;;;;13.27;4.30;;;;;;;10.76;79.42;99814.09;4990253;28;20054;-68